sensor_id;sensor_type;location;lat;lon;timestamp;P1;durP1;ratioP1;P2;durP2;ratioP2
60257;SDS011;46115;44.484;11.314;2022-08-21T00:03:51;5.38;;;1.63;;
60257;SDS011;46115;44.484;11.314;2022-08-21T00:07:54;3.80;;;1.73;;
60257;SDS011;46115;44.484;11.314;2022-08-21T00:11:57;5.47;;;1.77;;
60257;SDS011;46115;44.484;11.314;2022-08-21T00:16:01;3.55;;;1.50;;
60257;SDS011;46115;44.484;11.314;2022-08-21T00:20:05;4.38;;;1.67;;
60257;SDS011;46115;44.484;11.314;2022-08-21T00:24:10;4.20;;;1.60;;
60257;SDS011;46115;44.484;11.314;2022-08-21T00:28:13;3.40;;;1.60;;
60257;SDS011;46115;44.484;11.314;2022-08-21T00:32:20;5.88;;;1.40;;
60257;SDS011;46115;44.484;11.314;2022-08-21T00:36:23;4.40;;;1.63;;
60257;SDS011;46115;44.484;11.314;2022-08-21T00:40:27;3.15;;;1.42;;
60257;SDS011;46115;44.484;11.314;2022-08-21T00:44:31;5.15;;;1.52;;
60257;SDS011;46115;44.484;11.314;2022-08-21T00:48:35;4.40;;;1.55;;
60257;SDS011;46115;44.484;11.314;2022-08-21T00:52:38;4.53;;;1.50;;
60257;SDS011;46115;44.484;11.314;2022-08-21T00:56:42;2.22;;;1.40;;
60257;SDS011;46115;44.484;11.314;2022-08-21T01:00:46;3.53;;;1.60;;
60257;SDS011;46115;44.484;11.314;2022-08-21T01:04:51;4.63;;;1.40;;
60257;SDS011;46115;44.484;11.314;2022-08-21T01:08:54;2.22;;;1.40;;
60257;SDS011;46115;44.484;11.314;2022-08-21T01:12:56;4.93;;;1.40;;
60257;SDS011;46115;44.484;11.314;2022-08-21T01:17:00;3.78;;;1.60;;
60257;SDS011;46115;44.484;11.314;2022-08-21T01:21:07;4.35;;;1.38;;
60257;SDS011;46115;44.484;11.314;2022-08-21T01:25:12;2.83;;;1.50;;
60257;SDS011;46115;44.484;11.314;2022-08-21T01:29:25;2.78;;;1.55;;
60257;SDS011;46115;44.484;11.314;2022-08-21T01:33:32;5.60;;;1.50;;
60257;SDS011;46115;44.484;11.314;2022-08-21T01:37:36;6.07;;;1.58;;
60257;SDS011;46115;44.484;11.314;2022-08-21T01:41:38;5.38;;;1.45;;
60257;SDS011;46115;44.484;11.314;2022-08-21T01:45:41;3.28;;;1.60;;
60257;SDS011;46115;44.484;11.314;2022-08-21T01:49:44;2.33;;;1.45;;
60257;SDS011;46115;44.484;11.314;2022-08-21T01:53:48;6.55;;;1.55;;
60257;SDS011;46115;44.484;11.314;2022-08-21T01:57:51;5.47;;;1.50;;
60257;SDS011;46115;44.484;11.314;2022-08-21T02:01:53;8.65;;;1.73;;
60257;SDS011;46115;44.484;11.314;2022-08-21T02:05:56;4.32;;;1.50;;
60257;SDS011;46115;44.484;11.314;2022-08-21T02:10:00;3.58;;;1.70;;
60257;SDS011;46115;44.484;11.314;2022-08-21T02:14:02;2.92;;;1.48;;
60257;SDS011;46115;44.484;11.314;2022-08-21T02:18:05;3.50;;;1.50;;
60257;SDS011;46115;44.484;11.314;2022-08-21T02:22:08;2.95;;;1.30;;
60257;SDS011;46115;44.484;11.314;2022-08-21T02:26:12;3.60;;;1.58;;
60257;SDS011;46115;44.484;11.314;2022-08-21T02:30:16;2.67;;;1.50;;
60257;SDS011;46115;44.484;11.314;2022-08-21T02:34:22;3.90;;;1.60;;
60257;SDS011;46115;44.484;11.314;2022-08-21T02:38:25;2.47;;;1.40;;
60257;SDS011;46115;44.484;11.314;2022-08-21T02:42:30;3.80;;;1.30;;
60257;SDS011;46115;44.484;11.314;2022-08-21T02:46:32;3.10;;;1.50;;
60257;SDS011;46115;44.484;11.314;2022-08-21T02:50:36;3.70;;;1.45;;
60257;SDS011;46115;44.484;11.314;2022-08-21T02:54:41;4.63;;;1.40;;
60257;SDS011;46115;44.484;11.314;2022-08-21T02:58:45;3.17;;;1.40;;
60257;SDS011;46115;44.484;11.314;2022-08-21T03:02:50;4.03;;;1.50;;
60257;SDS011;46115;44.484;11.314;2022-08-21T03:06:54;2.95;;;1.40;;
60257;SDS011;46115;44.484;11.314;2022-08-21T03:10:56;4.05;;;1.40;;
60257;SDS011;46115;44.484;11.314;2022-08-21T03:15:03;4.03;;;1.60;;
60257;SDS011;46115;44.484;11.314;2022-08-21T03:19:07;4.88;;;1.50;;
60257;SDS011;46115;44.484;11.314;2022-08-21T03:23:10;3.92;;;1.40;;
60257;SDS011;46115;44.484;11.314;2022-08-21T03:27:13;6.07;;;1.50;;
60257;SDS011;46115;44.484;11.314;2022-08-21T03:31:17;3.75;;;1.33;;
60257;SDS011;46115;44.484;11.314;2022-08-21T03:35:19;5.22;;;1.58;;
60257;SDS011;46115;44.484;11.314;2022-08-21T03:39:22;2.40;;;1.42;;
60257;SDS011;46115;44.484;11.314;2022-08-21T03:43:25;2.33;;;1.70;;
60257;SDS011;46115;44.484;11.314;2022-08-21T03:47:29;2.70;;;1.38;;
60257;SDS011;46115;44.484;11.314;2022-08-21T03:51:31;3.22;;;1.27;;
60257;SDS011;46115;44.484;11.314;2022-08-21T03:55:34;3.28;;;1.40;;
60257;SDS011;46115;44.484;11.314;2022-08-21T03:59:36;2.20;;;1.40;;
60257;SDS011;46115;44.484;11.314;2022-08-21T04:03:41;5.53;;;1.52;;
60257;SDS011;46115;44.484;11.314;2022-08-21T04:07:44;1.88;;;1.35;;
60257;SDS011;46115;44.484;11.314;2022-08-21T04:11:46;3.92;;;1.50;;
60257;SDS011;46115;44.484;11.314;2022-08-21T04:15:49;2.70;;;1.42;;
60257;SDS011;46115;44.484;11.314;2022-08-21T04:19:53;3.72;;;1.40;;
60257;SDS011;46115;44.484;11.314;2022-08-21T04:23:56;4.72;;;1.63;;
60257;SDS011;46115;44.484;11.314;2022-08-21T04:27:59;5.35;;;1.55;;
60257;SDS011;46115;44.484;11.314;2022-08-21T04:32:02;3.72;;;1.55;;
60257;SDS011;46115;44.484;11.314;2022-08-21T04:36:07;3.58;;;1.60;;
60257;SDS011;46115;44.484;11.314;2022-08-21T04:40:10;4.25;;;1.60;;
60257;SDS011;46115;44.484;11.314;2022-08-21T04:44:14;5.50;;;1.65;;
60257;SDS011;46115;44.484;11.314;2022-08-21T04:48:17;3.53;;;1.60;;
60257;SDS011;46115;44.484;11.314;2022-08-21T04:52:22;5.40;;;1.60;;
60257;SDS011;46115;44.484;11.314;2022-08-21T04:56:27;2.80;;;1.70;;
60257;SDS011;46115;44.484;11.314;2022-08-21T05:00:33;2.88;;;1.60;;
60257;SDS011;46115;44.484;11.314;2022-08-21T05:04:37;3.15;;;1.70;;
60257;SDS011;46115;44.484;11.314;2022-08-21T05:08:45;4.40;;;1.33;;
60257;SDS011;46115;44.484;11.314;2022-08-21T05:12:50;4.10;;;1.60;;
60257;SDS011;46115;44.484;11.314;2022-08-21T05:16:53;2.90;;;1.35;;
60257;SDS011;46115;44.484;11.314;2022-08-21T05:20:55;4.00;;;1.50;;
60257;SDS011;46115;44.484;11.314;2022-08-21T05:24:59;2.20;;;1.30;;
60257;SDS011;46115;44.484;11.314;2022-08-21T05:29:02;3.47;;;1.55;;
60257;SDS011;46115;44.484;11.314;2022-08-21T05:33:05;3.08;;;1.60;;
60257;SDS011;46115;44.484;11.314;2022-08-21T05:37:09;2.72;;;1.40;;
60257;SDS011;46115;44.484;11.314;2022-08-21T05:41:14;2.67;;;1.40;;
60257;SDS011;46115;44.484;11.314;2022-08-21T05:45:16;3.17;;;1.40;;
60257;SDS011;46115;44.484;11.314;2022-08-21T05:49:19;3.38;;;1.30;;
60257;SDS011;46115;44.484;11.314;2022-08-21T05:53:22;4.50;;;1.40;;
60257;SDS011;46115;44.484;11.314;2022-08-21T05:57:27;2.17;;;1.20;;
60257;SDS011;46115;44.484;11.314;2022-08-21T06:01:29;2.72;;;1.40;;
60257;SDS011;46115;44.484;11.314;2022-08-21T06:05:32;2.75;;;1.40;;
60257;SDS011;46115;44.484;11.314;2022-08-21T06:09:35;4.45;;;1.30;;
60257;SDS011;46115;44.484;11.314;2022-08-21T06:13:40;2.72;;;1.20;;
60257;SDS011;46115;44.484;11.314;2022-08-21T06:17:42;4.65;;;1.40;;
60257;SDS011;46115;44.484;11.314;2022-08-21T06:21:45;4.28;;;1.20;;
60257;SDS011;46115;44.484;11.314;2022-08-21T06:25:47;4.10;;;1.42;;
60257;SDS011;46115;44.484;11.314;2022-08-21T06:29:51;3.35;;;1.30;;
60257;SDS011;46115;44.484;11.314;2022-08-21T06:33:53;1.95;;;1.10;;
60257;SDS011;46115;44.484;11.314;2022-08-21T06:37:56;4.55;;;1.10;;
60257;SDS011;46115;44.484;11.314;2022-08-21T06:41:59;5.55;;;1.20;;
60257;SDS011;46115;44.484;11.314;2022-08-21T06:46:04;3.05;;;1.00;;
60257;SDS011;46115;44.484;11.314;2022-08-21T06:50:08;5.55;;;1.00;;
60257;SDS011;46115;44.484;11.314;2022-08-21T06:54:11;3.35;;;1.00;;
60257;SDS011;46115;44.484;11.314;2022-08-21T06:58:13;2.47;;;0.98;;
60257;SDS011;46115;44.484;11.314;2022-08-21T07:02:18;2.78;;;1.00;;
60257;SDS011;46115;44.484;11.314;2022-08-21T07:06:20;2.00;;;0.85;;
60257;SDS011;46115;44.484;11.314;2022-08-21T07:10:23;1.73;;;0.90;;
60257;SDS011;46115;44.484;11.314;2022-08-21T07:14:25;2.35;;;0.90;;
60257;SDS011;46115;44.484;11.314;2022-08-21T07:18:29;3.05;;;1.10;;
60257;SDS011;46115;44.484;11.314;2022-08-21T07:22:32;1.98;;;0.93;;
60257;SDS011;46115;44.484;11.314;2022-08-21T07:26:35;1.45;;;0.80;;
60257;SDS011;46115;44.484;11.314;2022-08-21T07:30:38;1.77;;;0.70;;
60257;SDS011;46115;44.484;11.314;2022-08-21T07:34:42;1.83;;;0.80;;
60257;SDS011;46115;44.484;11.314;2022-08-21T07:38:45;2.75;;;1.00;;
60257;SDS011;46115;44.484;11.314;2022-08-21T07:42:48;3.30;;;0.90;;
60257;SDS011;46115;44.484;11.314;2022-08-21T07:46:52;2.65;;;0.90;;
60257;SDS011;46115;44.484;11.314;2022-08-21T07:50:56;1.17;;;0.90;;
60257;SDS011;46115;44.484;11.314;2022-08-21T07:54:59;2.30;;;0.93;;
60257;SDS011;46115;44.484;11.314;2022-08-21T07:59:01;2.17;;;1.00;;
60257;SDS011;46115;44.484;11.314;2022-08-21T08:03:04;1.75;;;1.10;;
60257;SDS011;46115;44.484;11.314;2022-08-21T08:07:08;2.33;;;1.20;;
60257;SDS011;46115;44.484;11.314;2022-08-21T08:11:11;2.63;;;1.10;;
60257;SDS011;46115;44.484;11.314;2022-08-21T08:15:17;2.90;;;1.10;;
60257;SDS011;46115;44.484;11.314;2022-08-21T08:19:21;3.53;;;1.10;;
60257;SDS011;46115;44.484;11.314;2022-08-21T08:23:25;2.20;;;1.10;;
60257;SDS011;46115;44.484;11.314;2022-08-21T08:27:28;2.75;;;1.20;;
60257;SDS011;46115;44.484;11.314;2022-08-21T08:31:30;2.40;;;1.20;;
60257;SDS011;46115;44.484;11.314;2022-08-21T08:35:33;3.25;;;1.40;;
60257;SDS011;46115;44.484;11.314;2022-08-21T08:39:37;1.98;;;1.35;;
60257;SDS011;46115;44.484;11.314;2022-08-21T08:43:40;2.78;;;1.50;;
60257;SDS011;46115;44.484;11.314;2022-08-21T08:47:46;2.08;;;1.40;;
60257;SDS011;46115;44.484;11.314;2022-08-21T08:51:51;2.53;;;1.30;;
60257;SDS011;46115;44.484;11.314;2022-08-21T08:56:01;1.85;;;1.30;;
60257;SDS011;46115;44.484;11.314;2022-08-21T09:00:07;3.55;;;1.30;;
60257;SDS011;46115;44.484;11.314;2022-08-21T09:04:13;1.58;;;1.40;;
60257;SDS011;46115;44.484;11.314;2022-08-21T09:08:24;1.77;;;1.33;;
60257;SDS011;46115;44.484;11.314;2022-08-21T09:12:39;2.70;;;1.30;;
60257;SDS011;46115;44.484;11.314;2022-08-21T09:16:53;2.63;;;1.55;;
60257;SDS011;46115;44.484;11.314;2022-08-21T09:21:01;1.92;;;1.70;;
60257;SDS011;46115;44.484;11.314;2022-08-21T09:25:12;2.75;;;1.40;;
60257;SDS011;46115;44.484;11.314;2022-08-21T09:29:22;2.42;;;1.40;;
60257;SDS011;46115;44.484;11.314;2022-08-21T09:33:30;1.60;;;1.23;;
60257;SDS011;46115;44.484;11.314;2022-08-21T09:37:34;3.38;;;1.30;;
60257;SDS011;46115;44.484;11.314;2022-08-21T09:41:46;1.75;;;1.00;;
60257;SDS011;46115;44.484;11.314;2022-08-21T09:46:03;3.15;;;1.13;;
60257;SDS011;46115;44.484;11.314;2022-08-21T09:50:09;1.70;;;1.10;;
60257;SDS011;46115;44.484;11.314;2022-08-21T09:54:15;2.63;;;1.02;;
60257;SDS011;46115;44.484;11.314;2022-08-21T09:58:20;3.30;;;1.10;;
60257;SDS011;46115;44.484;11.314;2022-08-21T10:02:26;4.22;;;1.30;;
60257;SDS011;46115;44.484;11.314;2022-08-21T10:06:29;2.20;;;1.20;;
60257;SDS011;46115;44.484;11.314;2022-08-21T10:10:32;1.45;;;1.10;;
60257;SDS011;46115;44.484;11.314;2022-08-21T10:14:42;2.33;;;1.20;;
60257;SDS011;46115;44.484;11.314;2022-08-21T10:18:56;2.55;;;1.05;;
60257;SDS011;46115;44.484;11.314;2022-08-21T10:23:11;1.50;;;1.13;;
60257;SDS011;46115;44.484;11.314;2022-08-21T10:27:30;1.73;;;1.00;;
60257;SDS011;46115;44.484;11.314;2022-08-21T10:31:41;1.70;;;1.33;;
60257;SDS011;46115;44.484;11.314;2022-08-21T10:35:53;3.15;;;1.40;;
60257;SDS011;46115;44.484;11.314;2022-08-21T10:40:10;3.80;;;1.23;;
60257;SDS011;46115;44.484;11.314;2022-08-21T10:44:23;2.63;;;1.17;;
60257;SDS011;46115;44.484;11.314;2022-08-21T10:48:33;2.60;;;1.20;;
60257;SDS011;46115;44.484;11.314;2022-08-21T10:52:46;4.03;;;1.20;;
60257;SDS011;46115;44.484;11.314;2022-08-21T10:57:16;4.18;;;1.20;;
60257;SDS011;46115;44.484;11.314;2022-08-21T11:01:27;1.95;;;0.98;;
60257;SDS011;46115;44.484;11.314;2022-08-21T11:05:35;2.10;;;1.20;;
60257;SDS011;46115;44.484;11.314;2022-08-21T11:09:43;1.98;;;1.10;;
60257;SDS011;46115;44.484;11.314;2022-08-21T11:13:51;1.35;;;1.00;;
60257;SDS011;46115;44.484;11.314;2022-08-21T11:18:01;1.85;;;0.93;;
60257;SDS011;46115;44.484;11.314;2022-08-21T11:22:13;2.30;;;1.10;;
60257;SDS011;46115;44.484;11.314;2022-08-21T11:26:23;5.75;;;1.10;;
60257;SDS011;46115;44.484;11.314;2022-08-21T11:30:33;2.45;;;0.93;;
60257;SDS011;46115;44.484;11.314;2022-08-21T11:34:48;1.70;;;1.08;;
60257;SDS011;46115;44.484;11.314;2022-08-21T11:39:02;1.95;;;1.10;;
60257;SDS011;46115;44.484;11.314;2022-08-21T11:43:17;2.42;;;1.00;;
60257;SDS011;46115;44.484;11.314;2022-08-21T11:47:32;2.08;;;0.90;;
60257;SDS011;46115;44.484;11.314;2022-08-21T11:51:44;1.70;;;1.10;;
60257;SDS011;46115;44.484;11.314;2022-08-21T11:55:51;1.45;;;1.08;;
60257;SDS011;46115;44.484;11.314;2022-08-21T12:00:04;2.35;;;1.15;;
60257;SDS011;46115;44.484;11.314;2022-08-21T12:04:17;1.77;;;0.90;;
60257;SDS011;46115;44.484;11.314;2022-08-21T12:08:34;1.47;;;0.87;;
60257;SDS011;46115;44.484;11.314;2022-08-21T12:12:39;2.08;;;1.00;;
60257;SDS011;46115;44.484;11.314;2022-08-21T12:16:45;2.30;;;1.10;;
60257;SDS011;46115;44.484;11.314;2022-08-21T12:21:04;2.05;;;1.00;;
60257;SDS011;46115;44.484;11.314;2022-08-21T12:25:22;2.95;;;1.02;;
60257;SDS011;46115;44.484;11.314;2022-08-21T12:29:26;4.32;;;1.25;;
60257;SDS011;46115;44.484;11.314;2022-08-21T12:33:33;3.17;;;1.00;;
60257;SDS011;46115;44.484;11.314;2022-08-21T12:37:40;2.75;;;1.00;;
60257;SDS011;46115;44.484;11.314;2022-08-21T12:41:47;2.70;;;1.10;;
60257;SDS011;46115;44.484;11.314;2022-08-21T12:45:52;1.77;;;0.80;;
60257;SDS011;46115;44.484;11.314;2022-08-21T12:49:56;2.65;;;1.00;;
60257;SDS011;46115;44.484;11.314;2022-08-21T12:54:03;1.88;;;0.98;;
60257;SDS011;46115;44.484;11.314;2022-08-21T12:58:06;1.98;;;1.00;;
60257;SDS011;46115;44.484;11.314;2022-08-21T13:02:11;2.03;;;0.93;;
60257;SDS011;46115;44.484;11.314;2022-08-21T13:06:20;1.87;;;0.93;;
60257;SDS011;46115;44.484;11.314;2022-08-21T13:10:25;6.22;;;1.00;;
60257;SDS011;46115;44.484;11.314;2022-08-21T13:14:31;3.83;;;0.88;;
60257;SDS011;46115;44.484;11.314;2022-08-21T13:18:39;2.33;;;0.98;;
60257;SDS011;46115;44.484;11.314;2022-08-21T13:22:56;1.98;;;0.98;;
60257;SDS011;46115;44.484;11.314;2022-08-21T13:27:00;1.98;;;0.98;;
60257;SDS011;46115;44.484;11.314;2022-08-21T13:31:05;3.05;;;0.90;;
60257;SDS011;46115;44.484;11.314;2022-08-21T13:35:11;3.50;;;1.10;;
60257;SDS011;46115;44.484;11.314;2022-08-21T13:39:18;1.98;;;0.82;;
60257;SDS011;46115;44.484;11.314;2022-08-21T13:43:22;2.38;;;0.90;;
60257;SDS011;46115;44.484;11.314;2022-08-21T13:47:29;1.45;;;0.80;;
60257;SDS011;46115;44.484;11.314;2022-08-21T13:51:31;2.33;;;1.00;;
60257;SDS011;46115;44.484;11.314;2022-08-21T13:55:38;3.83;;;1.00;;
60257;SDS011;46115;44.484;11.314;2022-08-21T13:59:42;1.85;;;1.00;;
60257;SDS011;46115;44.484;11.314;2022-08-21T14:03:45;2.40;;;0.90;;
60257;SDS011;46115;44.484;11.314;2022-08-21T14:07:51;2.85;;;0.90;;
60257;SDS011;46115;44.484;11.314;2022-08-21T14:12:11;2.05;;;1.00;;
60257;SDS011;46115;44.484;11.314;2022-08-21T14:16:17;1.55;;;1.00;;
60257;SDS011;46115;44.484;11.314;2022-08-21T14:20:28;2.17;;;1.00;;
60257;SDS011;46115;44.484;11.314;2022-08-21T14:24:38;1.85;;;1.05;;
60257;SDS011;46115;44.484;11.314;2022-08-21T14:28:43;1.70;;;0.90;;
60257;SDS011;46115;44.484;11.314;2022-08-21T14:32:46;1.63;;;0.90;;
60257;SDS011;46115;44.484;11.314;2022-08-21T14:36:49;2.88;;;0.95;;
60257;SDS011;46115;44.484;11.314;2022-08-21T14:40:52;1.30;;;0.80;;
60257;SDS011;46115;44.484;11.314;2022-08-21T14:44:59;1.52;;;0.95;;
60257;SDS011;46115;44.484;11.314;2022-08-21T14:49:04;2.17;;;1.10;;
60257;SDS011;46115;44.484;11.314;2022-08-21T14:53:07;2.33;;;0.98;;
60257;SDS011;46115;44.484;11.314;2022-08-21T14:57:10;2.42;;;1.00;;
60257;SDS011;46115;44.484;11.314;2022-08-21T15:01:15;3.28;;;0.93;;
60257;SDS011;46115;44.484;11.314;2022-08-21T15:05:19;2.20;;;0.90;;
60257;SDS011;46115;44.484;11.314;2022-08-21T15:09:21;2.55;;;1.00;;
60257;SDS011;46115;44.484;11.314;2022-08-21T15:13:24;4.35;;;1.00;;
60257;SDS011;46115;44.484;11.314;2022-08-21T15:17:28;2.20;;;1.02;;
60257;SDS011;46115;44.484;11.314;2022-08-21T15:21:31;2.00;;;1.00;;
60257;SDS011;46115;44.484;11.314;2022-08-21T15:25:34;4.60;;;1.30;;
60257;SDS011;46115;44.484;11.314;2022-08-21T15:29:36;2.67;;;1.25;;
60257;SDS011;46115;44.484;11.314;2022-08-21T15:33:40;2.22;;;1.10;;
60257;SDS011;46115;44.484;11.314;2022-08-21T15:37:43;3.25;;;1.20;;
60257;SDS011;46115;44.484;11.314;2022-08-21T15:41:45;2.95;;;1.10;;
60257;SDS011;46115;44.484;11.314;2022-08-21T15:45:48;1.35;;;1.00;;
60257;SDS011;46115;44.484;11.314;2022-08-21T15:49:52;1.60;;;0.98;;
60257;SDS011;46115;44.484;11.314;2022-08-21T15:53:55;2.58;;;1.42;;
60257;SDS011;46115;44.484;11.314;2022-08-21T15:57:57;2.80;;;1.00;;
60257;SDS011;46115;44.484;11.314;2022-08-21T16:02:00;2.05;;;0.90;;
60257;SDS011;46115;44.484;11.314;2022-08-21T16:06:04;3.42;;;1.00;;
60257;SDS011;46115;44.484;11.314;2022-08-21T16:10:06;1.63;;;1.00;;
60257;SDS011;46115;44.484;11.314;2022-08-21T16:14:10;1.85;;;1.00;;
60257;SDS011;46115;44.484;11.314;2022-08-21T16:18:13;2.03;;;1.10;;
60257;SDS011;46115;44.484;11.314;2022-08-21T16:22:17;2.22;;;1.10;;
60257;SDS011;46115;44.484;11.314;2022-08-21T16:26:19;2.00;;;1.10;;
60257;SDS011;46115;44.484;11.314;2022-08-21T16:30:22;1.63;;;1.00;;
60257;SDS011;46115;44.484;11.314;2022-08-21T16:34:25;1.73;;;1.00;;
60257;SDS011;46115;44.484;11.314;2022-08-21T16:38:30;1.52;;;0.88;;
60257;SDS011;46115;44.484;11.314;2022-08-21T16:42:33;3.30;;;1.17;;
60257;SDS011;46115;44.484;11.314;2022-08-21T16:46:37;3.65;;;1.00;;
60257;SDS011;46115;44.484;11.314;2022-08-21T16:50:41;4.88;;;1.10;;
60257;SDS011;46115;44.484;11.314;2022-08-21T16:54:46;3.65;;;1.10;;
60257;SDS011;46115;44.484;11.314;2022-08-21T16:58:49;3.63;;;1.00;;
60257;SDS011;46115;44.484;11.314;2022-08-21T17:02:53;1.70;;;0.82;;
60257;SDS011;46115;44.484;11.314;2022-08-21T17:06:56;2.72;;;0.90;;
60257;SDS011;46115;44.484;11.314;2022-08-21T17:11:00;1.30;;;1.00;;
60257;SDS011;46115;44.484;11.314;2022-08-21T17:15:05;4.15;;;1.10;;
60257;SDS011;46115;44.484;11.314;2022-08-21T17:19:13;1.70;;;1.10;;
60257;SDS011;46115;44.484;11.314;2022-08-21T17:23:17;2.13;;;1.17;;
60257;SDS011;46115;44.484;11.314;2022-08-21T17:27:21;1.90;;;1.10;;
60257;SDS011;46115;44.484;11.314;2022-08-21T17:31:28;3.38;;;0.98;;
60257;SDS011;46115;44.484;11.314;2022-08-21T17:35:31;2.17;;;1.13;;
60257;SDS011;46115;44.484;11.314;2022-08-21T17:39:33;3.40;;;1.30;;
60257;SDS011;46115;44.484;11.314;2022-08-21T17:43:39;2.22;;;1.23;;
60257;SDS011;46115;44.484;11.314;2022-08-21T17:47:42;3.20;;;1.20;;
60257;SDS011;46115;44.484;11.314;2022-08-21T17:51:45;2.47;;;1.10;;
60257;SDS011;46115;44.484;11.314;2022-08-21T17:55:47;2.58;;;0.93;;
60257;SDS011;46115;44.484;11.314;2022-08-21T17:59:51;3.10;;;1.20;;
60257;SDS011;46115;44.484;11.314;2022-08-21T18:03:54;2.13;;;1.30;;
60257;SDS011;46115;44.484;11.314;2022-08-21T18:07:57;2.92;;;1.30;;
60257;SDS011;46115;44.484;11.314;2022-08-21T18:11:59;3.35;;;1.20;;
60257;SDS011;46115;44.484;11.314;2022-08-21T18:16:04;1.92;;;0.95;;
60257;SDS011;46115;44.484;11.314;2022-08-21T18:20:07;3.22;;;1.30;;
60257;SDS011;46115;44.484;11.314;2022-08-21T18:24:10;2.08;;;1.30;;
60257;SDS011;46115;44.484;11.314;2022-08-21T18:28:12;2.60;;;1.20;;
60257;SDS011;46115;44.484;11.314;2022-08-21T18:32:20;3.67;;;1.30;;
60257;SDS011;46115;44.484;11.314;2022-08-21T18:36:25;3.83;;;1.20;;
60257;SDS011;46115;44.484;11.314;2022-08-21T18:40:29;3.95;;;1.40;;
60257;SDS011;46115;44.484;11.314;2022-08-21T18:44:33;1.98;;;1.10;;
60257;SDS011;46115;44.484;11.314;2022-08-21T18:48:37;2.50;;;1.30;;
60257;SDS011;46115;44.484;11.314;2022-08-21T18:52:40;3.70;;;1.30;;
60257;SDS011;46115;44.484;11.314;2022-08-21T22:06:09;3.67;;;1.50;;
60257;SDS011;46115;44.484;11.314;2022-08-21T22:10:20;3.97;;;1.57;;
60257;SDS011;46115;44.484;11.314;2022-08-21T22:14:32;6.05;;;1.80;;
60257;SDS011;46115;44.484;11.314;2022-08-21T22:18:38;5.22;;;1.60;;
60257;SDS011;46115;44.484;11.314;2022-08-21T22:22:45;4.07;;;1.52;;
60257;SDS011;46115;44.484;11.314;2022-08-21T22:26:48;5.28;;;1.63;;
60257;SDS011;46115;44.484;11.314;2022-08-21T22:30:55;2.00;;;1.70;;
60257;SDS011;46115;44.484;11.314;2022-08-21T22:35:14;2.50;;;1.60;;
60257;SDS011;46115;44.484;11.314;2022-08-21T22:39:26;4.05;;;2.00;;
60257;SDS011;46115;44.484;11.314;2022-08-21T22:43:30;2.60;;;1.70;;
60257;SDS011;46115;44.484;11.314;2022-08-21T22:47:34;3.75;;;2.17;;
60257;SDS011;46115;44.484;11.314;2022-08-21T22:51:40;3.90;;;2.45;;
60257;SDS011;46115;44.484;11.314;2022-08-21T22:55:52;6.40;;;2.22;;
60257;SDS011;46115;44.484;11.314;2022-08-21T22:59:57;7.13;;;2.30;;
60257;SDS011;46115;44.484;11.314;2022-08-21T23:04:10;5.10;;;2.05;;
60257;SDS011;46115;44.484;11.314;2022-08-21T23:08:20;5.05;;;2.10;;
60257;SDS011;46115;44.484;11.314;2022-08-21T23:12:29;4.38;;;2.03;;
60257;SDS011;46115;44.484;11.314;2022-08-21T23:16:38;5.47;;;1.70;;
60257;SDS011;46115;44.484;11.314;2022-08-21T23:20:56;4.47;;;2.15;;
60257;SDS011;46115;44.484;11.314;2022-08-21T23:25:10;4.53;;;1.83;;
60257;SDS011;46115;44.484;11.314;2022-08-21T23:29:34;6.47;;;1.90;;
60257;SDS011;46115;44.484;11.314;2022-08-21T23:33:50;3.97;;;1.90;;
60257;SDS011;46115;44.484;11.314;2022-08-21T23:38:03;3.75;;;1.90;;
60257;SDS011;46115;44.484;11.314;2022-08-21T23:42:20;7.57;;;1.95;;
60257;SDS011;46115;44.484;11.314;2022-08-21T23:46:38;3.60;;;2.00;;
60257;SDS011;46115;44.484;11.314;2022-08-21T23:50:53;4.68;;;1.90;;
60257;SDS011;46115;44.484;11.314;2022-08-21T23:59:33;2.90;;;1.88;;
